sensor_id;sensor_type;location;lat;lon;timestamp;temperature;humidity
55693;DHT22;41590;53.366;5.212;2022-10-26T00:02:08;12.70;99.90
55693;DHT22;41590;53.366;5.212;2022-10-26T00:04:38;12.80;99.90
55693;DHT22;41590;53.366;5.212;2022-10-26T00:07:12;12.70;99.90
55693;DHT22;41590;53.366;5.212;2022-10-26T00:09:38;12.20;99.90
55693;DHT22;41590;53.366;5.212;2022-10-26T00:12:04;12.50;99.90
55693;DHT22;41590;53.366;5.212;2022-10-26T00:14:34;12.70;99.90
55693;DHT22;41590;53.366;5.212;2022-10-26T00:17:00;12.30;99.90
55693;DHT22;41590;53.366;5.212;2022-10-26T00:19:43;12.20;99.90
55693;DHT22;41590;53.366;5.212;2022-10-26T00:25:54;12.00;99.90
55693;DHT22;41590;53.366;5.212;2022-10-26T00:28:22;12.60;99.90
55693;DHT22;41590;53.366;5.212;2022-10-26T00:30:51;12.50;99.90
55693;DHT22;41590;53.366;5.212;2022-10-26T00:33:26;12.60;99.90
55693;DHT22;41590;53.366;5.212;2022-10-26T00:49:41;12.10;99.90
55693;DHT22;41590;53.366;5.212;2022-10-26T00:52:12;12.50;99.90
55693;DHT22;41590;53.366;5.212;2022-10-26T00:54:40;12.00;99.90
55693;DHT22;41590;53.366;5.212;2022-10-26T00:57:14;12.00;99.90
55693;DHT22;41590;53.366;5.212;2022-10-26T00:59:42;12.30;99.90
55693;DHT22;41590;53.366;5.212;2022-10-26T01:02:09;12.50;99.90
55693;DHT22;41590;53.366;5.212;2022-10-26T01:04:46;11.90;99.90
55693;DHT22;41590;53.366;5.212;2022-10-26T01:07:15;12.50;99.90
55693;DHT22;41590;53.366;5.212;2022-10-26T01:09:41;12.40;99.90
55693;DHT22;41590;53.366;5.212;2022-10-26T01:30:47;12.30;99.90
55693;DHT22;41590;53.366;5.212;2022-10-26T01:39:28;11.80;99.90
55693;DHT22;41590;53.366;5.212;2022-10-26T01:42:00;11.60;99.90
55693;DHT22;41590;53.366;5.212;2022-10-26T01:44:44;12.10;99.90
55693;DHT22;41590;53.366;5.212;2022-10-26T01:47:16;12.00;99.90
55693;DHT22;41590;53.366;5.212;2022-10-26T01:50:01;12.10;99.90
55693;DHT22;41590;53.366;5.212;2022-10-26T01:52:28;11.50;99.90
55693;DHT22;41590;53.366;5.212;2022-10-26T02:01:26;11.60;99.90
55693;DHT22;41590;53.366;5.212;2022-10-26T02:07:00;11.50;99.90
55693;DHT22;41590;53.366;5.212;2022-10-26T02:12:35;11.80;99.90
55693;DHT22;41590;53.366;5.212;2022-10-26T02:18:29;11.60;99.90
55693;DHT22;41590;53.366;5.212;2022-10-26T02:21:06;11.50;99.90
55693;DHT22;41590;53.366;5.212;2022-10-26T02:26:43;11.40;99.90
55693;DHT22;41590;53.366;5.212;2022-10-26T02:29:16;11.80;99.90
55693;DHT22;41590;53.366;5.212;2022-10-26T02:34:50;11.20;99.90
55693;DHT22;41590;53.366;5.212;2022-10-26T02:37:25;11.70;99.90
55693;DHT22;41590;53.366;5.212;2022-10-26T02:40:00;11.70;99.90
55693;DHT22;41590;53.366;5.212;2022-10-26T02:42:27;11.30;99.90
55693;DHT22;41590;53.366;5.212;2022-10-26T02:45:03;11.20;99.90
55693;DHT22;41590;53.366;5.212;2022-10-26T02:47:37;11.30;99.90
55693;DHT22;41590;53.366;5.212;2022-10-26T02:50:04;11.70;99.90
55693;DHT22;41590;53.366;5.212;2022-10-26T02:53:04;11.20;99.90
55693;DHT22;41590;53.366;5.212;2022-10-26T02:55:41;11.70;99.90
55693;DHT22;41590;53.366;5.212;2022-10-26T02:58:21;11.70;99.90
55693;DHT22;41590;53.366;5.212;2022-10-26T03:00:49;11.60;99.90
55693;DHT22;41590;53.366;5.212;2022-10-26T03:03:19;11.50;99.90
55693;DHT22;41590;53.366;5.212;2022-10-26T03:05:48;11.00;99.90
55693;DHT22;41590;53.366;5.212;2022-10-26T03:08:14;11.50;99.90
55693;DHT22;41590;53.366;5.212;2022-10-26T03:10:42;11.50;99.90
55693;DHT22;41590;53.366;5.212;2022-10-26T03:13:09;11.00;99.90
55693;DHT22;41590;53.366;5.212;2022-10-26T03:15:42;11.10;99.90
55693;DHT22;41590;53.366;5.212;2022-10-26T03:18:16;11.40;99.90
55693;DHT22;41590;53.366;5.212;2022-10-26T03:20:46;11.10;99.90
55693;DHT22;41590;53.366;5.212;2022-10-26T03:23:13;11.00;99.90
55693;DHT22;41590;53.366;5.212;2022-10-26T03:25:43;10.90;99.90
55693;DHT22;41590;53.366;5.212;2022-10-26T03:28:11;11.40;99.90
55693;DHT22;41590;53.366;5.212;2022-10-26T03:30:37;11.30;99.90
55693;DHT22;41590;53.366;5.212;2022-10-26T03:33:07;10.70;99.90
55693;DHT22;41590;53.366;5.212;2022-10-26T03:35:33;10.80;99.90
55693;DHT22;41590;53.366;5.212;2022-10-26T03:38:00;11.10;99.90
55693;DHT22;41590;53.366;5.212;2022-10-26T03:40:29;11.10;99.90
55693;DHT22;41590;53.366;5.212;2022-10-26T03:42:58;10.80;99.90
55693;DHT22;41590;53.366;5.212;2022-10-26T03:45:24;11.00;99.90
55693;DHT22;41590;53.366;5.212;2022-10-26T03:48:02;10.70;99.90
55693;DHT22;41590;53.366;5.212;2022-10-26T03:50:42;10.60;99.90
55693;DHT22;41590;53.366;5.212;2022-10-26T03:53:10;10.60;99.90
55693;DHT22;41590;53.366;5.212;2022-10-26T03:55:43;10.60;99.90
55693;DHT22;41590;53.366;5.212;2022-10-26T03:58:16;11.20;99.90
55693;DHT22;41590;53.366;5.212;2022-10-26T04:00:46;11.30;99.90
55693;DHT22;41590;53.366;5.212;2022-10-26T04:03:13;11.20;99.90
55693;DHT22;41590;53.366;5.212;2022-10-26T04:05:50;10.70;99.90
55693;DHT22;41590;53.366;5.212;2022-10-26T04:08:31;11.20;99.90
55693;DHT22;41590;53.366;5.212;2022-10-26T04:10:57;11.30;99.90
55693;DHT22;41590;53.366;5.212;2022-10-26T04:13:23;11.00;99.90
55693;DHT22;41590;53.366;5.212;2022-10-26T04:15:55;10.80;99.90
55693;DHT22;41590;53.366;5.212;2022-10-26T04:18:22;11.30;99.90
55693;DHT22;41590;53.366;5.212;2022-10-26T04:21:07;11.30;99.90
55693;DHT22;41590;53.366;5.212;2022-10-26T04:23:51;10.90;99.90
55693;DHT22;41590;53.366;5.212;2022-10-26T04:26:17;11.30;99.90
55693;DHT22;41590;53.366;5.212;2022-10-26T04:28:56;11.40;99.90
55693;DHT22;41590;53.366;5.212;2022-10-26T04:31:39;11.50;99.90
55693;DHT22;41590;53.366;5.212;2022-10-26T04:34:07;11.50;99.90
55693;DHT22;41590;53.366;5.212;2022-10-26T04:36:35;11.50;99.90
55693;DHT22;41590;53.366;5.212;2022-10-26T04:39:14;11.00;99.90
55693;DHT22;41590;53.366;5.212;2022-10-26T04:41:40;11.00;99.90
55693;DHT22;41590;53.366;5.212;2022-10-26T04:44:08;11.00;99.90
55693;DHT22;41590;53.366;5.212;2022-10-26T04:46:47;11.00;99.90
55693;DHT22;41590;53.366;5.212;2022-10-26T04:52:07;11.20;99.90
55693;DHT22;41590;53.366;5.212;2022-10-26T04:54:40;11.20;99.90
55693;DHT22;41590;53.366;5.212;2022-10-26T04:57:10;11.20;99.90
55693;DHT22;41590;53.366;5.212;2022-10-26T04:59:39;11.80;99.90
55693;DHT22;41590;53.366;5.212;2022-10-26T05:02:15;11.30;99.90
55693;DHT22;41590;53.366;5.212;2022-10-26T05:10:49;11.40;99.90
55693;DHT22;41590;53.366;5.212;2022-10-26T05:13:15;11.60;99.90
55693;DHT22;41590;53.366;5.212;2022-10-26T05:15:47;12.00;99.90
55693;DHT22;41590;53.366;5.212;2022-10-26T05:18:27;11.40;99.90
55693;DHT22;41590;53.366;5.212;2022-10-26T05:27:09;11.50;99.90
55693;DHT22;41590;53.366;5.212;2022-10-26T05:29:57;11.50;99.90
55693;DHT22;41590;53.366;5.212;2022-10-26T05:32:32;11.40;99.90
55693;DHT22;41590;53.366;5.212;2022-10-26T05:35:13;11.80;99.90
55693;DHT22;41590;53.366;5.212;2022-10-26T05:37:46;11.90;99.90
55693;DHT22;41590;53.366;5.212;2022-10-26T05:40:13;11.80;99.90
55693;DHT22;41590;53.366;5.212;2022-10-26T05:46:17;11.90;99.90
55693;DHT22;41590;53.366;5.212;2022-10-26T05:48:50;11.90;99.90
55693;DHT22;41590;53.366;5.212;2022-10-26T05:51:27;11.40;99.90
55693;DHT22;41590;53.366;5.212;2022-10-26T05:53:53;11.90;99.90
55693;DHT22;41590;53.366;5.212;2022-10-26T05:56:38;11.60;99.90
55693;DHT22;41590;53.366;5.212;2022-10-26T05:59:11;11.40;99.90
55693;DHT22;41590;53.366;5.212;2022-10-26T06:07:47;11.60;99.90
55693;DHT22;41590;53.366;5.212;2022-10-26T06:13:46;12.00;99.90
55693;DHT22;41590;53.366;5.212;2022-10-26T06:20:02;11.80;99.90
55693;DHT22;41590;53.366;5.212;2022-10-26T06:28:24;11.80;99.90
55693;DHT22;41590;53.366;5.212;2022-10-26T06:30:57;11.90;99.90
55693;DHT22;41590;53.366;5.212;2022-10-26T06:33:47;11.90;99.90
55693;DHT22;41590;53.366;5.212;2022-10-26T06:36:48;12.00;99.90
55693;DHT22;41590;53.366;5.212;2022-10-26T06:39:16;12.10;99.90
55693;DHT22;41590;53.366;5.212;2022-10-26T06:45:16;12.40;99.90
55693;DHT22;41590;53.366;5.212;2022-10-26T06:48:09;11.90;99.90
55693;DHT22;41590;53.366;5.212;2022-10-26T06:50:55;12.40;99.90
55693;DHT22;41590;53.366;5.212;2022-10-26T06:56:44;12.50;99.90
55693;DHT22;41590;53.366;5.212;2022-10-26T06:59:43;12.20;99.90
55693;DHT22;41590;53.366;5.212;2022-10-26T07:02:13;12.10;99.90
55693;DHT22;41590;53.366;5.212;2022-10-26T07:04:45;12.50;99.90
55693;DHT22;41590;53.366;5.212;2022-10-26T07:07:33;12.40;99.90
55693;DHT22;41590;53.366;5.212;2022-10-26T07:13:11;12.30;99.90
55693;DHT22;41590;53.366;5.212;2022-10-26T07:15:42;12.40;99.90
55693;DHT22;41590;53.366;5.212;2022-10-26T07:18:08;12.80;99.90
55693;DHT22;41590;53.366;5.212;2022-10-26T07:20:40;12.70;99.90
55693;DHT22;41590;53.366;5.212;2022-10-26T07:23:28;12.70;99.90
55693;DHT22;41590;53.366;5.212;2022-10-26T07:26:01;12.40;99.90
55693;DHT22;41590;53.366;5.212;2022-10-26T07:31:11;12.70;99.90
55693;DHT22;41590;53.366;5.212;2022-10-26T07:33:56;12.50;99.90
55693;DHT22;41590;53.366;5.212;2022-10-26T07:36:23;12.90;99.90
55693;DHT22;41590;53.366;5.212;2022-10-26T07:38:55;12.90;99.90
55693;DHT22;41590;53.366;5.212;2022-10-26T07:44:59;12.70;99.90
55693;DHT22;41590;53.366;5.212;2022-10-26T07:47:48;13.10;99.90
55693;DHT22;41590;53.366;5.212;2022-10-26T07:50:33;12.90;99.90
55693;DHT22;41590;53.366;5.212;2022-10-26T07:53:02;13.30;99.90
55693;DHT22;41590;53.366;5.212;2022-10-26T07:58:55;13.40;99.90
55693;DHT22;41590;53.366;5.212;2022-10-26T08:01:25;13.30;99.90
55693;DHT22;41590;53.366;5.212;2022-10-26T08:04:04;13.40;99.90
55693;DHT22;41590;53.366;5.212;2022-10-26T08:06:38;13.30;99.90
55693;DHT22;41590;53.366;5.212;2022-10-26T08:13:04;13.30;99.90
55693;DHT22;41590;53.366;5.212;2022-10-26T08:15:44;13.30;99.90
55693;DHT22;41590;53.366;5.212;2022-10-26T08:18:13;13.30;99.90
55693;DHT22;41590;53.366;5.212;2022-10-26T08:21:04;13.40;99.90
55693;DHT22;41590;53.366;5.212;2022-10-26T08:24:01;13.20;99.90
55693;DHT22;41590;53.366;5.212;2022-10-26T08:26:30;13.50;99.90
55693;DHT22;41590;53.366;5.212;2022-10-26T08:28:57;13.30;99.90
55693;DHT22;41590;53.366;5.212;2022-10-26T08:31:29;13.50;99.90
55693;DHT22;41590;53.366;5.212;2022-10-26T08:34:01;13.40;99.90
55693;DHT22;41590;53.366;5.212;2022-10-26T08:36:35;13.60;99.90
55693;DHT22;41590;53.366;5.212;2022-10-26T08:39:12;13.50;99.90
55693;DHT22;41590;53.366;5.212;2022-10-26T08:41:43;13.40;99.90
55693;DHT22;41590;53.366;5.212;2022-10-26T08:46:57;14.00;99.90
55693;DHT22;41590;53.366;5.212;2022-10-26T08:50:11;13.90;99.90
55693;DHT22;41590;53.366;5.212;2022-10-26T09:02:12;14.30;99.90
55693;DHT22;41590;53.366;5.212;2022-10-26T09:04:50;14.40;99.90
55693;DHT22;41590;53.366;5.212;2022-10-26T09:19:57;14.90;99.90
55693;DHT22;41590;53.366;5.212;2022-10-26T09:25:38;15.10;99.90
55693;DHT22;41590;53.366;5.212;2022-10-26T09:28:16;15.20;99.90
55693;DHT22;41590;53.366;5.212;2022-10-26T09:30:45;15.20;99.90
55693;DHT22;41590;53.366;5.212;2022-10-26T09:33:23;15.30;99.90
55693;DHT22;41590;53.366;5.212;2022-10-26T09:36:00;15.40;99.90
55693;DHT22;41590;53.366;5.212;2022-10-26T09:38:43;15.40;99.90
55693;DHT22;41590;53.366;5.212;2022-10-26T09:44:35;15.50;99.90
55693;DHT22;41590;53.366;5.212;2022-10-26T09:47:32;15.40;99.90
55693;DHT22;41590;53.366;5.212;2022-10-26T09:50:16;15.40;99.90
55693;DHT22;41590;53.366;5.212;2022-10-26T09:55:48;15.40;99.90
55693;DHT22;41590;53.366;5.212;2022-10-26T09:58:51;15.40;99.90
55693;DHT22;41590;53.366;5.212;2022-10-26T10:01:28;15.40;99.90
55693;DHT22;41590;53.366;5.212;2022-10-26T10:09:37;15.30;99.90
55693;DHT22;41590;53.366;5.212;2022-10-26T10:12:03;15.40;99.90
55693;DHT22;41590;53.366;5.212;2022-10-26T10:14:56;15.50;99.90
55693;DHT22;41590;53.366;5.212;2022-10-26T10:17:24;15.50;99.90
55693;DHT22;41590;53.366;5.212;2022-10-26T10:19:53;15.50;99.90
55693;DHT22;41590;53.366;5.212;2022-10-26T10:22:20;15.60;99.90
55693;DHT22;41590;53.366;5.212;2022-10-26T10:31:30;15.80;99.90
55693;DHT22;41590;53.366;5.212;2022-10-26T10:34:31;15.80;99.90
55693;DHT22;41590;53.366;5.212;2022-10-26T10:40:24;15.90;99.90
55693;DHT22;41590;53.366;5.212;2022-10-26T10:42:54;16.00;99.90
55693;DHT22;41590;53.366;5.212;2022-10-26T10:45:56;16.00;99.90
55693;DHT22;41590;53.366;5.212;2022-10-26T10:48:27;16.00;99.90
55693;DHT22;41590;53.366;5.212;2022-10-26T10:51:05;16.10;99.90
55693;DHT22;41590;53.366;5.212;2022-10-26T10:53:44;16.00;99.90
55693;DHT22;41590;53.366;5.212;2022-10-26T11:08:34;16.30;99.90
55693;DHT22;41590;53.366;5.212;2022-10-26T11:11:33;16.40;99.90
55693;DHT22;41590;53.366;5.212;2022-10-26T11:14:23;16.50;99.90
55693;DHT22;41590;53.366;5.212;2022-10-26T11:17:15;16.60;99.90
55693;DHT22;41590;53.366;5.212;2022-10-26T11:20:02;16.50;99.90
55693;DHT22;41590;53.366;5.212;2022-10-26T11:22:44;16.50;99.90
55693;DHT22;41590;53.366;5.212;2022-10-26T11:25:27;16.60;99.90
55693;DHT22;41590;53.366;5.212;2022-10-26T11:31:06;16.60;99.90
55693;DHT22;41590;53.366;5.212;2022-10-26T11:36:38;16.80;99.90
55693;DHT22;41590;53.366;5.212;2022-10-26T11:39:19;16.80;99.90
55693;DHT22;41590;53.366;5.212;2022-10-26T11:41:59;16.90;99.90
55693;DHT22;41590;53.366;5.212;2022-10-26T11:47:39;17.00;99.90
55693;DHT22;41590;53.366;5.212;2022-10-26T11:50:26;17.00;99.90
55693;DHT22;41590;53.366;5.212;2022-10-26T12:03:15;17.10;99.90
55693;DHT22;41590;53.366;5.212;2022-10-26T12:06:07;17.20;99.90
55693;DHT22;41590;53.366;5.212;2022-10-26T12:08:41;17.20;99.90
55693;DHT22;41590;53.366;5.212;2022-10-26T12:11:47;17.30;99.90
55693;DHT22;41590;53.366;5.212;2022-10-26T12:14:28;17.30;99.90
55693;DHT22;41590;53.366;5.212;2022-10-26T12:17:19;17.30;99.90
55693;DHT22;41590;53.366;5.212;2022-10-26T12:20:17;17.30;99.90
55693;DHT22;41590;53.366;5.212;2022-10-26T12:22:52;17.30;99.90
55693;DHT22;41590;53.366;5.212;2022-10-26T12:25:20;17.40;99.90
55693;DHT22;41590;53.366;5.212;2022-10-26T12:27:58;17.40;99.90
55693;DHT22;41590;53.366;5.212;2022-10-26T12:30:33;17.50;99.90
55693;DHT22;41590;53.366;5.212;2022-10-26T12:33:28;17.40;99.90
55693;DHT22;41590;53.366;5.212;2022-10-26T12:39:30;17.50;99.90
55693;DHT22;41590;53.366;5.212;2022-10-26T12:58:49;17.70;99.90
55693;DHT22;41590;53.366;5.212;2022-10-26T13:01:46;17.70;99.90
55693;DHT22;41590;53.366;5.212;2022-10-26T13:07:33;17.60;99.90
55693;DHT22;41590;53.366;5.212;2022-10-26T13:20:33;17.60;99.90
55693;DHT22;41590;53.366;5.212;2022-10-26T13:23:18;17.50;99.90
55693;DHT22;41590;53.366;5.212;2022-10-26T13:26:01;17.50;99.90
55693;DHT22;41590;53.366;5.212;2022-10-26T13:28:42;17.50;99.90
55693;DHT22;41590;53.366;5.212;2022-10-26T13:33:50;17.60;99.90
55693;DHT22;41590;53.366;5.212;2022-10-26T13:39:16;17.50;99.90
55693;DHT22;41590;53.366;5.212;2022-10-26T13:41:45;17.60;99.90
55693;DHT22;41590;53.366;5.212;2022-10-26T13:44:41;17.60;99.90
55693;DHT22;41590;53.366;5.212;2022-10-26T13:47:29;17.50;99.90
55693;DHT22;41590;53.366;5.212;2022-10-26T13:50:27;17.40;99.90
55693;DHT22;41590;53.366;5.212;2022-10-26T13:53:23;17.30;99.90
55693;DHT22;41590;53.366;5.212;2022-10-26T13:56:12;17.20;99.90
55693;DHT22;41590;53.366;5.212;2022-10-26T14:02:13;17.30;99.90
55693;DHT22;41590;53.366;5.212;2022-10-26T14:04:53;17.30;99.90
55693;DHT22;41590;53.366;5.212;2022-10-26T14:07:51;17.40;99.90
55693;DHT22;41590;53.366;5.212;2022-10-26T14:12:57;17.50;99.90
55693;DHT22;41590;53.366;5.212;2022-10-26T14:15:30;17.30;99.90
55693;DHT22;41590;53.366;5.212;2022-10-26T14:17:58;17.20;99.90
55693;DHT22;41590;53.366;5.212;2022-10-26T14:20:25;17.20;99.90
55693;DHT22;41590;53.366;5.212;2022-10-26T14:23:25;17.20;99.90
55693;DHT22;41590;53.366;5.212;2022-10-26T14:25:54;17.30;99.90
55693;DHT22;41590;53.366;5.212;2022-10-26T14:28:42;17.20;99.90
55693;DHT22;41590;53.366;5.212;2022-10-26T14:31:30;17.20;99.90
55693;DHT22;41590;53.366;5.212;2022-10-26T14:34:00;17.10;99.90
55693;DHT22;41590;53.366;5.212;2022-10-26T14:36:57;17.00;99.90
55693;DHT22;41590;53.366;5.212;2022-10-26T14:39:36;16.90;99.90
55693;DHT22;41590;53.366;5.212;2022-10-26T14:45:21;16.70;99.90
55693;DHT22;41590;53.366;5.212;2022-10-26T14:47:49;16.70;99.90
55693;DHT22;41590;53.366;5.212;2022-10-26T14:50:19;16.60;99.90
55693;DHT22;41590;53.366;5.212;2022-10-26T14:52:54;16.60;99.90
55693;DHT22;41590;53.366;5.212;2022-10-26T14:55:26;16.40;99.90
55693;DHT22;41590;53.366;5.212;2022-10-26T14:58:17;16.50;99.90
55693;DHT22;41590;53.366;5.212;2022-10-26T15:00:46;16.60;99.90
55693;DHT22;41590;53.366;5.212;2022-10-26T15:03:17;16.50;99.90
55693;DHT22;41590;53.366;5.212;2022-10-26T15:08:55;16.30;99.90
55693;DHT22;41590;53.366;5.212;2022-10-26T15:11:24;16.20;99.90
55693;DHT22;41590;53.366;5.212;2022-10-26T15:13:50;16.20;99.90
55693;DHT22;41590;53.366;5.212;2022-10-26T15:16:37;16.20;99.90
55693;DHT22;41590;53.366;5.212;2022-10-26T15:19:18;16.20;99.90
55693;DHT22;41590;53.366;5.212;2022-10-26T15:21:49;16.50;99.90
55693;DHT22;41590;53.366;5.212;2022-10-26T15:26:53;16.30;99.90
55693;DHT22;41590;53.366;5.212;2022-10-26T15:29:39;16.20;99.90
55693;DHT22;41590;53.366;5.212;2022-10-26T15:32:26;16.20;99.90
55693;DHT22;41590;53.366;5.212;2022-10-26T15:35:12;16.20;99.90
55693;DHT22;41590;53.366;5.212;2022-10-26T15:37:39;16.30;99.90
55693;DHT22;41590;53.366;5.212;2022-10-26T15:40:07;16.40;99.90
55693;DHT22;41590;53.366;5.212;2022-10-26T15:45:44;16.30;99.90
55693;DHT22;41590;53.366;5.212;2022-10-26T15:51:40;16.10;99.90
55693;DHT22;41590;53.366;5.212;2022-10-26T15:57:46;16.20;99.90
55693;DHT22;41590;53.366;5.212;2022-10-26T16:00:33;16.20;99.90
55693;DHT22;41590;53.366;5.212;2022-10-26T16:06:01;15.90;99.90
55693;DHT22;41590;53.366;5.212;2022-10-26T16:08:29;16.00;99.90
55693;DHT22;41590;53.366;5.212;2022-10-26T16:11:04;15.90;99.90
55693;DHT22;41590;53.366;5.212;2022-10-26T16:14:00;15.90;99.90
55693;DHT22;41590;53.366;5.212;2022-10-26T16:16:33;15.90;99.90
55693;DHT22;41590;53.366;5.212;2022-10-26T16:19:00;15.60;99.90
55693;DHT22;41590;53.366;5.212;2022-10-26T16:21:36;15.60;99.90
55693;DHT22;41590;53.366;5.212;2022-10-26T16:24:10;15.80;99.90
55693;DHT22;41590;53.366;5.212;2022-10-26T16:26:39;15.70;99.90
55693;DHT22;41590;53.366;5.212;2022-10-26T16:29:07;15.60;99.90
55693;DHT22;41590;53.366;5.212;2022-10-26T16:31:33;15.70;99.90
55693;DHT22;41590;53.366;5.212;2022-10-26T16:34:00;15.70;99.90
55693;DHT22;41590;53.366;5.212;2022-10-26T16:36:26;15.80;99.90
55693;DHT22;41590;53.366;5.212;2022-10-26T16:39:04;15.60;99.90
55693;DHT22;41590;53.366;5.212;2022-10-26T16:41:37;15.50;99.90
55693;DHT22;41590;53.366;5.212;2022-10-26T16:44:10;15.30;99.90
55693;DHT22;41590;53.366;5.212;2022-10-26T16:46:35;15.60;99.90
55693;DHT22;41590;53.366;5.212;2022-10-26T16:49:05;15.50;99.90
55693;DHT22;41590;53.366;5.212;2022-10-26T16:51:37;15.20;99.90
55693;DHT22;41590;53.366;5.212;2022-10-26T16:54:16;15.20;99.90
55693;DHT22;41590;53.366;5.212;2022-10-26T16:56:48;15.50;99.90
55693;DHT22;41590;53.366;5.212;2022-10-26T16:59:15;15.30;99.90
55693;DHT22;41590;53.366;5.212;2022-10-26T17:01:56;15.20;99.90
55693;DHT22;41590;53.366;5.212;2022-10-26T17:04:26;15.20;99.90
55693;DHT22;41590;53.366;5.212;2022-10-26T17:06:54;15.30;99.90
55693;DHT22;41590;53.366;5.212;2022-10-26T17:09:42;15.40;99.90
55693;DHT22;41590;53.366;5.212;2022-10-26T17:12:28;15.10;99.90
55693;DHT22;41590;53.366;5.212;2022-10-26T17:18:19;15.30;99.90
55693;DHT22;41590;53.366;5.212;2022-10-26T17:20:49;15.40;99.90
55693;DHT22;41590;53.366;5.212;2022-10-26T17:23:17;15.00;99.90
55693;DHT22;41590;53.366;5.212;2022-10-26T17:25:44;14.80;99.90
55693;DHT22;41590;53.366;5.212;2022-10-26T17:28:23;15.00;99.90
55693;DHT22;41590;53.366;5.212;2022-10-26T17:31:12;14.80;99.90
55693;DHT22;41590;53.366;5.212;2022-10-26T17:33:44;14.80;99.90
55693;DHT22;41590;53.366;5.212;2022-10-26T17:36:18;15.10;99.90
55693;DHT22;41590;53.366;5.212;2022-10-26T17:38:53;15.30;99.90
55693;DHT22;41590;53.366;5.212;2022-10-26T17:41:31;15.30;99.90
55693;DHT22;41590;53.366;5.212;2022-10-26T17:44:05;14.80;99.90
55693;DHT22;41590;53.366;5.212;2022-10-26T17:46:32;15.30;99.90
55693;DHT22;41590;53.366;5.212;2022-10-26T17:49:02;14.80;99.90
55693;DHT22;41590;53.366;5.212;2022-10-26T17:51:32;15.30;99.90
55693;DHT22;41590;53.366;5.212;2022-10-26T17:54:13;15.10;99.90
55693;DHT22;41590;53.366;5.212;2022-10-26T17:56:45;15.40;99.90
55693;DHT22;41590;53.366;5.212;2022-10-26T18:02:16;14.70;99.90
55693;DHT22;41590;53.366;5.212;2022-10-26T18:04:41;14.70;99.90
55693;DHT22;41590;53.366;5.212;2022-10-26T18:07:09;14.70;99.90
55693;DHT22;41590;53.366;5.212;2022-10-26T18:09:46;14.80;99.90
55693;DHT22;41590;53.366;5.212;2022-10-26T18:12:14;15.20;99.90
55693;DHT22;41590;53.366;5.212;2022-10-26T18:14:42;15.20;99.90
55693;DHT22;41590;53.366;5.212;2022-10-26T18:17:08;15.10;99.90
55693;DHT22;41590;53.366;5.212;2022-10-26T18:19:38;15.30;99.90
55693;DHT22;41590;53.366;5.212;2022-10-26T18:22:06;14.50;99.90
55693;DHT22;41590;53.366;5.212;2022-10-26T18:24:35;15.20;99.90
55693;DHT22;41590;53.366;5.212;2022-10-26T18:27:05;14.60;99.90
55693;DHT22;41590;53.366;5.212;2022-10-26T18:29:36;14.60;99.90
55693;DHT22;41590;53.366;5.212;2022-10-26T18:32:03;15.20;99.90
55693;DHT22;41590;53.366;5.212;2022-10-26T18:34:28;15.10;99.90
55693;DHT22;41590;53.366;5.212;2022-10-26T18:36:55;15.10;99.90
55693;DHT22;41590;53.366;5.212;2022-10-26T18:39:37;15.20;99.90
55693;DHT22;41590;53.366;5.212;2022-10-26T18:42:04;14.50;99.90
55693;DHT22;41590;53.366;5.212;2022-10-26T18:47:35;14.70;99.90
55693;DHT22;41590;53.366;5.212;2022-10-26T18:50:02;14.50;99.90
55693;DHT22;41590;53.366;5.212;2022-10-26T18:52:28;14.70;99.90
55693;DHT22;41590;53.366;5.212;2022-10-26T18:54:54;15.10;99.90
55693;DHT22;41590;53.366;5.212;2022-10-26T18:57:29;15.00;99.90
55693;DHT22;41590;53.366;5.212;2022-10-26T18:59:55;14.40;99.90
55693;DHT22;41590;53.366;5.212;2022-10-26T19:02:23;14.90;99.90
55693;DHT22;41590;53.366;5.212;2022-10-26T19:04:53;14.40;99.90
55693;DHT22;41590;53.366;5.212;2022-10-26T19:07:32;15.00;99.90
55693;DHT22;41590;53.366;5.212;2022-10-26T19:09:58;14.80;99.90
55693;DHT22;41590;53.366;5.212;2022-10-26T19:12:32;14.30;99.90
55693;DHT22;41590;53.366;5.212;2022-10-26T19:14:58;14.50;99.90
55693;DHT22;41590;53.366;5.212;2022-10-26T19:17:25;14.90;99.90
55693;DHT22;41590;53.366;5.212;2022-10-26T19:20:05;14.30;99.90
55693;DHT22;41590;53.366;5.212;2022-10-26T19:22:31;14.60;99.90
55693;DHT22;41590;53.366;5.212;2022-10-26T19:24:58;14.70;99.90
55693;DHT22;41590;53.366;5.212;2022-10-26T19:27:29;15.00;99.90
55693;DHT22;41590;53.366;5.212;2022-10-26T19:29:55;14.50;99.90
55693;DHT22;41590;53.366;5.212;2022-10-26T19:32:27;15.10;99.90
55693;DHT22;41590;53.366;5.212;2022-10-26T19:34:53;15.00;99.90
55693;DHT22;41590;53.366;5.212;2022-10-26T19:37:20;14.80;99.90
55693;DHT22;41590;53.366;5.212;2022-10-26T19:39:45;14.50;99.90
55693;DHT22;41590;53.366;5.212;2022-10-26T19:42:11;15.00;99.90
55693;DHT22;41590;53.366;5.212;2022-10-26T19:44:41;14.90;99.90
55693;DHT22;41590;53.366;5.212;2022-10-26T19:47:06;15.00;99.90
55693;DHT22;41590;53.366;5.212;2022-10-26T19:49:33;14.40;99.90
55693;DHT22;41590;53.366;5.212;2022-10-26T19:52:00;14.60;99.90
55693;DHT22;41590;53.366;5.212;2022-10-26T19:54:27;14.90;99.90
55693;DHT22;41590;53.366;5.212;2022-10-26T19:56:52;14.40;99.90
55693;DHT22;41590;53.366;5.212;2022-10-26T19:59:18;15.10;99.90
55693;DHT22;41590;53.366;5.212;2022-10-26T20:01:45;15.20;99.90
55693;DHT22;41590;53.366;5.212;2022-10-26T20:04:13;15.20;99.90
55693;DHT22;41590;53.366;5.212;2022-10-26T20:06:38;15.20;99.90
55693;DHT22;41590;53.366;5.212;2022-10-26T20:09:04;14.40;99.90
55693;DHT22;41590;53.366;5.212;2022-10-26T20:11:37;15.10;99.90
55693;DHT22;41590;53.366;5.212;2022-10-26T20:14:06;14.50;99.90
55693;DHT22;41590;53.366;5.212;2022-10-26T20:16:32;14.50;99.90
55693;DHT22;41590;53.366;5.212;2022-10-26T20:19:00;15.10;99.90
55693;DHT22;41590;53.366;5.212;2022-10-26T20:21:28;15.10;99.90
55693;DHT22;41590;53.366;5.212;2022-10-26T20:23:53;15.20;99.90
55693;DHT22;41590;53.366;5.212;2022-10-26T20:26:19;14.60;99.90
55693;DHT22;41590;53.366;5.212;2022-10-26T20:28:48;15.20;99.90
55693;DHT22;41590;53.366;5.212;2022-10-26T20:31:15;15.30;99.90
55693;DHT22;41590;53.366;5.212;2022-10-26T20:33:53;14.60;99.90
55693;DHT22;41590;53.366;5.212;2022-10-26T20:36:20;14.70;99.90
55693;DHT22;41590;53.366;5.212;2022-10-26T20:38:53;15.00;99.90
55693;DHT22;41590;53.366;5.212;2022-10-26T20:41:31;14.90;99.90
55693;DHT22;41590;53.366;5.212;2022-10-26T20:43:59;14.70;99.90
55693;DHT22;41590;53.366;5.212;2022-10-26T20:46:29;15.40;99.90
55693;DHT22;41590;53.366;5.212;2022-10-26T20:48:59;14.80;99.90
55693;DHT22;41590;53.366;5.212;2022-10-26T20:57:31;14.60;99.90
55693;DHT22;41590;53.366;5.212;2022-10-26T21:00:06;14.70;99.90
55693;DHT22;41590;53.366;5.212;2022-10-26T21:02:34;14.50;99.90
55693;DHT22;41590;53.366;5.212;2022-10-26T21:05:00;15.20;99.90